sensor_id;sensor_type;location;lat;lon;timestamp;temperature;humidity
77056;SHT30;67471;44.918;8.614;2023-09-12T00:02:37;24.82;54.10
77056;SHT30;67471;44.918;8.614;2023-09-12T00:05:40;24.82;54.55
77056;SHT30;67471;44.918;8.614;2023-09-12T00:08:43;24.78;54.08
77056;SHT30;67471;44.918;8.614;2023-09-12T00:11:47;24.68;55.27
77056;SHT30;67471;44.918;8.614;2023-09-12T00:14:50;24.58;55.83
77056;SHT30;67471;44.918;8.614;2023-09-12T00:17:54;24.55;54.21
77056;SHT30;67471;44.918;8.614;2023-09-12T00:20:58;24.45;53.26
77056;SHT30;67471;44.918;8.614;2023-09-12T00:24:04;24.47;53.51
77056;SHT30;67471;44.918;8.614;2023-09-12T00:27:08;24.41;55.83
77056;SHT30;67471;44.918;8.614;2023-09-12T00:30:11;24.26;57.24
77056;SHT30;67471;44.918;8.614;2023-09-12T00:33:15;24.18;57.57
77056;SHT30;67471;44.918;8.614;2023-09-12T00:36:19;24.12;57.82
77056;SHT30;67471;44.918;8.614;2023-09-12T00:39:22;23.93;58.55
77056;SHT30;67471;44.918;8.614;2023-09-12T00:42:25;23.79;58.77
77056;SHT30;67471;44.918;8.614;2023-09-12T00:45:29;23.79;58.60
77056;SHT30;67471;44.918;8.614;2023-09-12T00:48:33;23.89;58.00
77056;SHT30;67471;44.918;8.614;2023-09-12T00:51:37;23.82;56.71
77056;SHT30;67471;44.918;8.614;2023-09-12T00:54:41;23.89;56.21
77056;SHT30;67471;44.918;8.614;2023-09-12T00:57:44;23.93;55.75
77056;SHT30;67471;44.918;8.614;2023-09-12T01:00:48;23.86;55.99
77056;SHT30;67471;44.918;8.614;2023-09-12T01:03:51;23.83;56.14
77056;SHT30;67471;44.918;8.614;2023-09-12T01:06:55;23.77;56.65
77056;SHT30;67471;44.918;8.614;2023-09-12T01:09:58;23.80;57.12
77056;SHT30;67471;44.918;8.614;2023-09-12T01:13:02;23.83;56.49
77056;SHT30;67471;44.918;8.614;2023-09-12T01:16:06;23.72;57.17
77056;SHT30;67471;44.918;8.614;2023-09-12T01:19:10;23.69;57.06
77056;SHT30;67471;44.918;8.614;2023-09-12T01:28:55;23.66;57.03
77056;SHT30;67471;44.918;8.614;2023-09-12T01:32:00;23.51;57.68
77056;SHT30;67471;44.918;8.614;2023-09-12T01:35:05;23.51;57.67
77056;SHT30;67471;44.918;8.614;2023-09-12T01:38:09;23.39;58.15
77056;SHT30;67471;44.918;8.614;2023-09-12T01:41:13;23.32;58.41
77056;SHT30;67471;44.918;8.614;2023-09-12T01:44:16;23.21;58.57
77056;SHT30;67471;44.918;8.614;2023-09-12T01:47:21;23.14;58.95
77056;SHT30;67471;44.918;8.614;2023-09-12T01:50:25;23.00;59.30
77056;SHT30;67471;44.918;8.614;2023-09-12T01:53:29;22.84;59.95
77056;SHT30;67471;44.918;8.614;2023-09-12T01:56:34;22.83;60.11
77056;SHT30;67471;44.918;8.614;2023-09-12T01:59:38;22.88;59.83
77056;SHT30;67471;44.918;8.614;2023-09-12T02:02:41;22.87;59.86
77056;SHT30;67471;44.918;8.614;2023-09-12T02:05:44;22.88;59.95
77056;SHT30;67471;44.918;8.614;2023-09-12T02:08:48;22.88;59.81
77056;SHT30;67471;44.918;8.614;2023-09-12T02:11:52;22.86;59.90
77056;SHT30;67471;44.918;8.614;2023-09-12T02:14:55;22.83;60.26
77056;SHT30;67471;44.918;8.614;2023-09-12T02:17:59;22.93;60.54
77056;SHT30;67471;44.918;8.614;2023-09-12T02:21:02;22.77;61.56
77056;SHT30;67471;44.918;8.614;2023-09-12T02:24:06;22.70;61.64
77056;SHT30;67471;44.918;8.614;2023-09-12T02:27:09;22.78;61.35
77056;SHT30;67471;44.918;8.614;2023-09-12T02:30:13;22.74;61.62
77056;SHT30;67471;44.918;8.614;2023-09-12T02:33:16;22.77;61.81
77056;SHT30;67471;44.918;8.614;2023-09-12T02:36:20;22.67;61.93
77056;SHT30;67471;44.918;8.614;2023-09-12T02:39:23;22.68;61.83
77056;SHT30;67471;44.918;8.614;2023-09-12T02:42:27;22.70;61.83
77056;SHT30;67471;44.918;8.614;2023-09-12T02:45:31;22.68;61.82
77056;SHT30;67471;44.918;8.614;2023-09-12T02:48:34;22.56;61.80
77056;SHT30;67471;44.918;8.614;2023-09-12T02:51:38;22.57;61.89
77056;SHT30;67471;44.918;8.614;2023-09-12T02:54:42;22.43;62.11
77056;SHT30;67471;44.918;8.614;2023-09-12T02:57:45;22.47;62.25
77056;SHT30;67471;44.918;8.614;2023-09-12T03:00:50;22.40;62.37
77056;SHT30;67471;44.918;8.614;2023-09-12T03:03:57;22.28;62.91
77056;SHT30;67471;44.918;8.614;2023-09-12T03:07:01;22.47;62.84
77056;SHT30;67471;44.918;8.614;2023-09-12T03:10:05;22.33;63.07
77056;SHT30;67471;44.918;8.614;2023-09-12T03:13:11;22.32;62.96
77056;SHT30;67471;44.918;8.614;2023-09-12T03:16:14;22.26;63.56
77056;SHT30;67471;44.918;8.614;2023-09-12T03:19:18;22.12;64.17
77056;SHT30;67471;44.918;8.614;2023-09-12T03:22:22;22.02;64.42
77056;SHT30;67471;44.918;8.614;2023-09-12T03:25:25;22.10;64.09
77056;SHT30;67471;44.918;8.614;2023-09-12T03:28:29;21.99;64.63
77056;SHT30;67471;44.918;8.614;2023-09-12T03:31:33;21.95;64.63
77056;SHT30;67471;44.918;8.614;2023-09-12T03:34:38;21.91;64.37
77056;SHT30;67471;44.918;8.614;2023-09-12T03:37:42;21.85;64.17
77056;SHT30;67471;44.918;8.614;2023-09-12T03:40:46;21.82;64.27
77056;SHT30;67471;44.918;8.614;2023-09-12T03:43:50;21.77;64.50
77056;SHT30;67471;44.918;8.614;2023-09-12T03:46:54;21.71;64.98
77056;SHT30;67471;44.918;8.614;2023-09-12T03:49:57;21.67;65.08
77056;SHT30;67471;44.918;8.614;2023-09-12T03:53:00;21.67;65.04
77056;SHT30;67471;44.918;8.614;2023-09-12T03:56:06;21.74;65.07
77056;SHT30;67471;44.918;8.614;2023-09-12T03:59:11;21.54;65.96
77056;SHT30;67471;44.918;8.614;2023-09-12T04:02:15;21.57;65.77
77056;SHT30;67471;44.918;8.614;2023-09-12T04:05:18;21.55;65.41
77056;SHT30;67471;44.918;8.614;2023-09-12T04:08:22;21.47;66.40
77056;SHT30;67471;44.918;8.614;2023-09-12T04:11:25;21.41;66.50
77056;SHT30;67471;44.918;8.614;2023-09-12T04:14:28;21.41;66.35
77056;SHT30;67471;44.918;8.614;2023-09-12T04:17:31;21.36;67.11
77056;SHT30;67471;44.918;8.614;2023-09-12T04:20:35;21.40;67.07
77056;SHT30;67471;44.918;8.614;2023-09-12T04:23:39;21.27;67.74
77056;SHT30;67471;44.918;8.614;2023-09-12T04:26:43;21.27;67.87
77056;SHT30;67471;44.918;8.614;2023-09-12T04:29:47;21.06;68.89
77056;SHT30;67471;44.918;8.614;2023-09-12T04:32:51;21.06;68.48
77056;SHT30;67471;44.918;8.614;2023-09-12T04:35:56;20.92;68.53
77056;SHT30;67471;44.918;8.614;2023-09-12T04:39:00;21.02;68.30
77056;SHT30;67471;44.918;8.614;2023-09-12T04:42:03;20.95;68.54
77056;SHT30;67471;44.918;8.614;2023-09-12T04:45:07;21.06;68.08
77056;SHT30;67471;44.918;8.614;2023-09-12T04:48:11;21.11;68.13
77056;SHT30;67471;44.918;8.614;2023-09-12T04:51:14;21.11;67.87
77056;SHT30;67471;44.918;8.614;2023-09-12T04:54:17;21.04;67.79
77056;SHT30;67471;44.918;8.614;2023-09-12T04:57:21;21.28;65.96
77056;SHT30;67471;44.918;8.614;2023-09-12T05:00:25;21.31;65.70
77056;SHT30;67471;44.918;8.614;2023-09-12T05:03:28;21.36;66.12
77056;SHT30;67471;44.918;8.614;2023-09-12T05:06:32;21.30;66.00
77056;SHT30;67471;44.918;8.614;2023-09-12T05:09:36;21.27;65.80
77056;SHT30;67471;44.918;8.614;2023-09-12T05:12:39;21.31;66.13
77056;SHT30;67471;44.918;8.614;2023-09-12T05:15:43;21.34;66.61
77056;SHT30;67471;44.918;8.614;2023-09-12T05:18:47;21.37;66.62
77056;SHT30;67471;44.918;8.614;2023-09-12T05:21:52;21.37;66.49
77056;SHT30;67471;44.918;8.614;2023-09-12T05:24:56;21.44;66.25
77056;SHT30;67471;44.918;8.614;2023-09-12T05:28:00;21.41;66.99
77056;SHT30;67471;44.918;8.614;2023-09-12T05:31:04;21.48;67.09
77056;SHT30;67471;44.918;8.614;2023-09-12T05:34:09;21.48;67.35
77056;SHT30;67471;44.918;8.614;2023-09-12T05:37:12;21.58;67.13
77056;SHT30;67471;44.918;8.614;2023-09-12T05:40:16;21.61;66.82
77056;SHT30;67471;44.918;8.614;2023-09-12T05:43:20;21.58;66.96
77056;SHT30;67471;44.918;8.614;2023-09-12T05:46:24;21.64;66.92
77056;SHT30;67471;44.918;8.614;2023-09-12T05:49:27;21.68;66.88
77056;SHT30;67471;44.918;8.614;2023-09-12T05:52:31;21.74;66.76
77056;SHT30;67471;44.918;8.614;2023-09-12T05:55:35;21.85;66.18
77056;SHT30;67471;44.918;8.614;2023-09-12T05:58:39;21.99;65.50
77056;SHT30;67471;44.918;8.614;2023-09-12T06:01:45;22.01;65.49
77056;SHT30;67471;44.918;8.614;2023-09-12T06:04:49;22.13;65.24
77056;SHT30;67471;44.918;8.614;2023-09-12T06:07:53;22.22;64.85
77056;SHT30;67471;44.918;8.614;2023-09-12T06:10:56;22.32;64.44
77056;SHT30;67471;44.918;8.614;2023-09-12T06:14:00;22.43;64.53
77056;SHT30;67471;44.918;8.614;2023-09-12T06:17:04;22.59;64.16
77056;SHT30;67471;44.918;8.614;2023-09-12T06:20:07;22.64;64.25
77056;SHT30;67471;44.918;8.614;2023-09-12T06:23:11;22.76;64.13
77056;SHT30;67471;44.918;8.614;2023-09-12T06:26:14;23.28;62.79
77056;SHT30;67471;44.918;8.614;2023-09-12T06:29:18;24.47;59.31
77056;SHT30;67471;44.918;8.614;2023-09-12T06:32:21;25.62;55.78
77056;SHT30;67471;44.918;8.614;2023-09-12T06:35:24;26.49;53.82
77056;SHT30;67471;44.918;8.614;2023-09-12T06:38:30;27.47;51.24
77056;SHT30;67471;44.918;8.614;2023-09-12T06:41:33;28.30;50.04
77056;SHT30;67471;44.918;8.614;2023-09-12T06:44:37;28.39;49.94
77056;SHT30;67471;44.918;8.614;2023-09-12T06:47:40;28.86;48.08
77056;SHT30;67471;44.918;8.614;2023-09-12T06:50:44;29.63;46.51
77056;SHT30;67471;44.918;8.614;2023-09-12T06:53:47;30.21;45.38
77056;SHT30;67471;44.918;8.614;2023-09-12T06:56:51;30.88;43.56
77056;SHT30;67471;44.918;8.614;2023-09-12T06:59:55;31.57;42.10
77056;SHT30;67471;44.918;8.614;2023-09-12T07:02:59;32.19;41.24
77056;SHT30;67471;44.918;8.614;2023-09-12T07:06:02;32.55;40.21
77056;SHT30;67471;44.918;8.614;2023-09-12T07:09:07;31.20;42.92
77056;SHT30;67471;44.918;8.614;2023-09-12T07:12:11;29.80;45.70
77056;SHT30;67471;44.918;8.614;2023-09-12T07:15:15;30.20;45.60
77056;SHT30;67471;44.918;8.614;2023-09-12T07:18:19;31.18;43.65
77056;SHT30;67471;44.918;8.614;2023-09-12T07:21:23;32.35;41.05
77056;SHT30;67471;44.918;8.614;2023-09-12T07:24:27;33.02;39.76
77056;SHT30;67471;44.918;8.614;2023-09-12T07:27:30;33.04;39.81
77056;SHT30;67471;44.918;8.614;2023-09-12T07:30:34;33.40;39.56
77056;SHT30;67471;44.918;8.614;2023-09-12T07:33:38;33.75;38.74
77056;SHT30;67471;44.918;8.614;2023-09-12T07:36:41;34.08;37.99
77056;SHT30;67471;44.918;8.614;2023-09-12T07:39:44;34.42;37.71
77056;SHT30;67471;44.918;8.614;2023-09-12T07:42:47;34.20;37.93
77056;SHT30;67471;44.918;8.614;2023-09-12T07:45:54;34.05;38.52
77056;SHT30;67471;44.918;8.614;2023-09-12T07:48:58;34.17;38.34
77056;SHT30;67471;44.918;8.614;2023-09-12T07:52:02;34.33;38.11
77056;SHT30;67471;44.918;8.614;2023-09-12T07:55:06;34.52;37.96
77056;SHT30;67471;44.918;8.614;2023-09-12T07:58:11;35.01;36.96
77056;SHT30;67471;44.918;8.614;2023-09-12T08:01:14;34.46;37.57
